sensor_id;sensor_type;location;lat;lon;timestamp;pressure;altitude;pressure_sealevel;temperature;humidity
5522;BME280;2783;48.730;8.006;2023-01-25T00:00:00;101788.94;;;5.32;97.71
5522;BME280;2783;48.730;8.006;2023-01-25T00:02:26;101790.63;;;5.29;97.94
5522;BME280;2783;48.730;8.006;2023-01-25T00:04:51;101788.84;;;5.26;97.96
5522;BME280;2783;48.730;8.006;2023-01-25T00:07:17;101786.25;;;5.29;98.34
5522;BME280;2783;48.730;8.006;2023-01-25T00:09:42;101791.47;;;5.26;98.04
5522;BME280;2783;48.730;8.006;2023-01-25T00:12:07;101781.75;;;5.24;98.40
5522;BME280;2783;48.730;8.006;2023-01-25T00:14:32;101779.09;;;5.24;98.09
5522;BME280;2783;48.730;8.006;2023-01-25T00:16:58;101773.81;;;5.22;98.03
5522;BME280;2783;48.730;8.006;2023-01-25T00:19:23;101771.16;;;5.21;97.28
5522;BME280;2783;48.730;8.006;2023-01-25T00:21:48;101768.56;;;5.24;96.96
5522;BME280;2783;48.730;8.006;2023-01-25T00:24:13;101769.44;;;5.24;98.31
5522;BME280;2783;48.730;8.006;2023-01-25T00:26:39;101773.00;;;5.25;97.68
5522;BME280;2783;48.730;8.006;2023-01-25T00:29:08;101765.00;;;5.20;96.80
5522;BME280;2783;48.730;8.006;2023-01-25T00:31:57;101766.75;;;5.21;96.80
5522;BME280;2783;48.730;8.006;2023-01-25T00:39:19;101753.38;;;5.11;97.40
5522;BME280;2783;48.730;8.006;2023-01-25T00:41:45;101754.19;;;5.05;97.77
5522;BME280;2783;48.730;8.006;2023-01-25T00:44:10;101751.56;;;5.07;98.34
5522;BME280;2783;48.730;8.006;2023-01-25T00:46:35;101750.69;;;5.06;98.34
5522;BME280;2783;48.730;8.006;2023-01-25T00:49:00;101744.47;;;5.03;98.06
5522;BME280;2783;48.730;8.006;2023-01-25T00:51:26;101740.97;;;5.04;97.94
5522;BME280;2783;48.730;8.006;2023-01-25T00:53:51;101750.59;;;5.00;98.09
5522;BME280;2783;48.730;8.006;2023-01-25T00:56:17;101740.78;;;4.93;98.26
5522;BME280;2783;48.730;8.006;2023-01-25T00:58:42;101749.59;;;4.94;97.90
5522;BME280;2783;48.730;8.006;2023-01-25T01:01:08;101747.84;;;4.96;98.17
5522;BME280;2783;48.730;8.006;2023-01-25T01:03:33;101738.25;;;4.99;97.69
5522;BME280;2783;48.730;8.006;2023-01-25T01:06:17;101741.66;;;4.92;97.76
5522;BME280;2783;48.730;8.006;2023-01-25T01:08:42;101745.00;;;4.82;98.55
5522;BME280;2783;48.730;8.006;2023-01-25T01:11:09;101741.38;;;4.77;98.43
5522;BME280;2783;48.730;8.006;2023-01-25T01:13:34;101743.13;;;4.78;98.27
5522;BME280;2783;48.730;8.006;2023-01-25T01:16:00;101722.78;;;4.71;99.10
5522;BME280;2783;48.730;8.006;2023-01-25T01:18:38;101730.59;;;4.65;99.07
5522;BME280;2783;48.730;8.006;2023-01-25T01:21:04;101721.91;;;4.69;99.51
5522;BME280;2783;48.730;8.006;2023-01-25T01:23:30;101728.94;;;4.70;99.37
5522;BME280;2783;48.730;8.006;2023-01-25T01:25:58;101725.28;;;4.62;99.77
5522;BME280;2783;48.730;8.006;2023-01-25T01:28:23;101716.50;;;4.63;100.00
5522;BME280;2783;48.730;8.006;2023-01-25T01:30:48;101716.50;;;4.63;99.72
5522;BME280;2783;48.730;8.006;2023-01-25T01:33:14;101729.53;;;4.56;100.00
5522;BME280;2783;48.730;8.006;2023-01-25T01:35:39;101728.69;;;4.58;100.00
5522;BME280;2783;48.730;8.006;2023-01-25T01:38:04;101733.03;;;4.55;100.00
5522;BME280;2783;48.730;8.006;2023-01-25T01:40:30;101728.69;;;4.57;100.00
5522;BME280;2783;48.730;8.006;2023-01-25T01:43:06;101739.16;;;4.54;100.00
5522;BME280;2783;48.730;8.006;2023-01-25T01:46:01;101751.38;;;4.50;100.00
5522;BME280;2783;48.730;8.006;2023-01-25T01:53:37;101730.38;;;4.53;100.00
5522;BME280;2783;48.730;8.006;2023-01-25T01:56:04;101738.34;;;4.56;100.00
5522;BME280;2783;48.730;8.006;2023-01-25T01:58:31;101732.22;;;4.57;100.00
5522;BME280;2783;48.730;8.006;2023-01-25T02:06:47;101730.44;;;4.56;100.00
5522;BME280;2783;48.730;8.006;2023-01-25T02:12:03;101720.00;;;4.62;100.00
5522;BME280;2783;48.730;8.006;2023-01-25T02:14:29;101725.22;;;4.59;100.00
5522;BME280;2783;48.730;8.006;2023-01-25T02:16:54;101715.44;;;4.54;100.00
5522;BME280;2783;48.730;8.006;2023-01-25T02:19:36;101714.50;;;4.50;100.00
5522;BME280;2783;48.730;8.006;2023-01-25T02:22:02;101715.41;;;4.51;100.00
5522;BME280;2783;48.730;8.006;2023-01-25T02:24:31;101717.09;;;4.49;100.00
5522;BME280;2783;48.730;8.006;2023-01-25T02:26:57;101723.25;;;4.48;100.00
5522;BME280;2783;48.730;8.006;2023-01-25T02:29:23;101719.72;;;4.47;100.00
5522;BME280;2783;48.730;8.006;2023-01-25T02:31:49;101716.22;;;4.48;100.00
5522;BME280;2783;48.730;8.006;2023-01-25T02:34:16;101719.72;;;4.47;100.00
5522;BME280;2783;48.730;8.006;2023-01-25T02:36:42;101721.56;;;4.51;100.00
5522;BME280;2783;48.730;8.006;2023-01-25T02:39:08;101710.91;;;4.47;100.00
5522;BME280;2783;48.730;8.006;2023-01-25T02:44:00;101708.94;;;4.35;100.00
5522;BME280;2783;48.730;8.006;2023-01-25T02:46:29;101707.97;;;4.32;100.00
5522;BME280;2783;48.730;8.006;2023-01-25T02:48:56;101701.84;;;4.31;100.00
5522;BME280;2783;48.730;8.006;2023-01-25T02:51:22;101703.63;;;4.32;100.00
5522;BME280;2783;48.730;8.006;2023-01-25T02:53:48;101697.41;;;4.29;100.00
5522;BME280;2783;48.730;8.006;2023-01-25T02:56:14;101701.78;;;4.27;100.00
5522;BME280;2783;48.730;8.006;2023-01-25T02:58:39;101699.06;;;4.24;100.00
5522;BME280;2783;48.730;8.006;2023-01-25T03:01:05;101696.44;;;4.25;100.00
5522;BME280;2783;48.730;8.006;2023-01-25T03:03:30;101691.19;;;4.25;100.00
5522;BME280;2783;48.730;8.006;2023-01-25T03:05:55;101700.00;;;4.27;100.00
5522;BME280;2783;48.730;8.006;2023-01-25T03:08:20;101695.59;;;4.26;100.00
5522;BME280;2783;48.730;8.006;2023-01-25T03:10:46;101695.56;;;4.25;100.00
5522;BME280;2783;48.730;8.006;2023-01-25T03:13:11;101702.66;;;4.29;100.00
5522;BME280;2783;48.730;8.006;2023-01-25T03:15:36;101699.16;;;4.28;100.00
5522;BME280;2783;48.730;8.006;2023-01-25T03:18:01;101696.63;;;4.34;100.00
5522;BME280;2783;48.730;8.006;2023-01-25T03:20:27;101700.13;;;4.33;100.00
5522;BME280;2783;48.730;8.006;2023-01-25T03:22:52;101691.41;;;4.36;100.00
5522;BME280;2783;48.730;8.006;2023-01-25T03:25:18;101690.53;;;4.37;100.00
5522;BME280;2783;48.730;8.006;2023-01-25T03:27:44;101681.00;;;4.43;100.00
5522;BME280;2783;48.730;8.006;2023-01-25T03:30:09;101693.41;;;4.50;100.00
5522;BME280;2783;48.730;8.006;2023-01-25T03:32:34;101677.56;;;4.47;100.00
5522;BME280;2783;48.730;8.006;2023-01-25T03:35:00;101682.03;;;4.50;100.00
5522;BME280;2783;48.730;8.006;2023-01-25T03:37:25;101673.28;;;4.54;100.00
5522;BME280;2783;48.730;8.006;2023-01-25T03:39:55;101674.88;;;4.44;100.00
5522;BME280;2783;48.730;8.006;2023-01-25T03:42:21;101666.97;;;4.44;100.00
5522;BME280;2783;48.730;8.006;2023-01-25T03:44:46;101678.50;;;4.51;100.00
5522;BME280;2783;48.730;8.006;2023-01-25T03:47:11;101674.97;;;4.49;100.00
5522;BME280;2783;48.730;8.006;2023-01-25T03:49:36;101667.94;;;4.49;100.00
5522;BME280;2783;48.730;8.006;2023-01-25T03:52:02;101669.56;;;4.41;100.00
5522;BME280;2783;48.730;8.006;2023-01-25T03:54:27;101673.16;;;4.45;100.00
5522;BME280;2783;48.730;8.006;2023-01-25T03:56:53;101672.19;;;4.41;100.00
5522;BME280;2783;48.730;8.006;2023-01-25T03:59:18;101668.69;;;4.42;100.00
5522;BME280;2783;48.730;8.006;2023-01-25T04:01:43;101672.97;;;4.36;100.00
5522;BME280;2783;48.730;8.006;2023-01-25T04:04:08;101665.09;;;4.37;100.00
5522;BME280;2783;48.730;8.006;2023-01-25T04:06:34;101671.28;;;4.41;100.00
5522;BME280;2783;48.730;8.006;2023-01-25T04:08:59;101669.50;;;4.38;100.00
5522;BME280;2783;48.730;8.006;2023-01-25T04:11:24;101674.81;;;4.41;100.00
5522;BME280;2783;48.730;8.006;2023-01-25T04:13:50;101671.28;;;4.39;100.00
5522;BME280;2783;48.730;8.006;2023-01-25T04:16:15;101660.78;;;4.42;100.00
5522;BME280;2783;48.730;8.006;2023-01-25T04:18:40;101665.00;;;4.33;100.00
5522;BME280;2783;48.730;8.006;2023-01-25T04:21:06;101672.00;;;4.32;100.00
5522;BME280;2783;48.730;8.006;2023-01-25T04:23:31;101670.19;;;4.28;100.00
5522;BME280;2783;48.730;8.006;2023-01-25T04:26:00;101670.19;;;4.28;100.00
5522;BME280;2783;48.730;8.006;2023-01-25T04:28:26;101663.00;;;4.20;100.00
5522;BME280;2783;48.730;8.006;2023-01-25T04:30:52;101664.69;;;4.16;100.00
5522;BME280;2783;48.730;8.006;2023-01-25T04:33:17;101667.25;;;4.13;100.00
5522;BME280;2783;48.730;8.006;2023-01-25T04:35:42;101654.81;;;4.06;100.00
5522;BME280;2783;48.730;8.006;2023-01-25T04:38:08;101659.31;;;4.10;100.00
5522;BME280;2783;48.730;8.006;2023-01-25T04:40:33;101658.38;;;4.08;100.00
5522;BME280;2783;48.730;8.006;2023-01-25T04:42:58;101652.19;;;4.06;100.00
5522;BME280;2783;48.730;8.006;2023-01-25T04:45:24;101659.09;;;3.99;100.00
5522;BME280;2783;48.730;8.006;2023-01-25T04:47:54;101659.16;;;4.04;100.00
5522;BME280;2783;48.730;8.006;2023-01-25T04:50:19;101654.78;;;4.03;100.00
5522;BME280;2783;48.730;8.006;2023-01-25T04:52:45;101655.81;;;4.11;100.00
5522;BME280;2783;48.730;8.006;2023-01-25T04:55:10;101659.41;;;4.16;100.00
5522;BME280;2783;48.730;8.006;2023-01-25T04:57:35;101662.03;;;4.16;100.00
5522;BME280;2783;48.730;8.006;2023-01-25T05:00:00;101656.03;;;4.22;100.00
5522;BME280;2783;48.730;8.006;2023-01-25T05:02:26;101654.03;;;4.10;100.00
5522;BME280;2783;48.730;8.006;2023-01-25T05:04:51;101654.03;;;4.10;100.00
5522;BME280;2783;48.730;8.006;2023-01-25T05:07:16;101657.56;;;4.12;100.00
5522;BME280;2783;48.730;8.006;2023-01-25T05:09:42;101648.78;;;4.10;100.00
5522;BME280;2783;48.730;8.006;2023-01-25T05:12:07;101654.09;;;4.13;100.00
5522;BME280;2783;48.730;8.006;2023-01-25T05:14:36;101654.84;;;4.07;100.00
5522;BME280;2783;48.730;8.006;2023-01-25T05:17:01;101647.91;;;4.11;100.00
5522;BME280;2783;48.730;8.006;2023-01-25T05:19:26;101652.22;;;4.07;100.00
5522;BME280;2783;48.730;8.006;2023-01-25T05:21:52;101644.41;;;4.12;100.00
5522;BME280;2783;48.730;8.006;2023-01-25T05:24:27;101647.97;;;4.14;100.00
5522;BME280;2783;48.730;8.006;2023-01-25T05:26:53;101640.97;;;4.15;100.00
5522;BME280;2783;48.730;8.006;2023-01-25T05:29:24;101644.44;;;4.14;100.00
5522;BME280;2783;48.730;8.006;2023-01-25T05:31:49;101648.81;;;4.13;100.00
5522;BME280;2783;48.730;8.006;2023-01-25T05:34:14;101652.38;;;4.15;100.00
5522;BME280;2783;48.730;8.006;2023-01-25T05:36:40;101655.03;;;4.15;100.00
5522;BME280;2783;48.730;8.006;2023-01-25T05:39:05;101646.31;;;4.21;100.00
5522;BME280;2783;48.730;8.006;2023-01-25T05:41:30;101644.63;;;4.23;100.00
5522;BME280;2783;48.730;8.006;2023-01-25T05:43:56;101644.66;;;4.26;100.00
5522;BME280;2783;48.730;8.006;2023-01-25T05:46:21;101639.56;;;4.33;100.00
5522;BME280;2783;48.730;8.006;2023-01-25T05:48:46;101636.84;;;4.30;100.00
5522;BME280;2783;48.730;8.006;2023-01-25T05:51:12;101643.00;;;4.31;100.00
5522;BME280;2783;48.730;8.006;2023-01-25T05:53:37;101642.13;;;4.30;100.00
5522;BME280;2783;48.730;8.006;2023-01-25T05:56:03;101638.63;;;4.31;100.00
5522;BME280;2783;48.730;8.006;2023-01-25T05:58:28;101639.50;;;4.32;100.00
5522;BME280;2783;48.730;8.006;2023-01-25T06:00:54;101629.84;;;4.31;100.00
5522;BME280;2783;48.730;8.006;2023-01-25T06:03:19;101636.78;;;4.27;100.00
5522;BME280;2783;48.730;8.006;2023-01-25T06:05:44;101629.81;;;4.29;100.00
5522;BME280;2783;48.730;8.006;2023-01-25T06:08:09;101639.47;;;4.30;100.00
5522;BME280;2783;48.730;8.006;2023-01-25T06:10:35;101634.22;;;4.32;100.00
5522;BME280;2783;48.730;8.006;2023-01-25T06:13:00;101633.38;;;4.31;100.00
5522;BME280;2783;48.730;8.006;2023-01-25T06:15:25;101637.75;;;4.31;100.00
5522;BME280;2783;48.730;8.006;2023-01-25T06:17:54;101634.31;;;4.35;100.00
5522;BME280;2783;48.730;8.006;2023-01-25T06:20:19;101627.22;;;4.31;100.00
5522;BME280;2783;48.730;8.006;2023-01-25T06:22:49;101631.53;;;4.27;100.00
5522;BME280;2783;48.730;8.006;2023-01-25T06:25:14;101626.31;;;4.30;100.00
5522;BME280;2783;48.730;8.006;2023-01-25T06:27:39;101628.03;;;4.27;100.00
5522;BME280;2783;48.730;8.006;2023-01-25T06:30:05;101630.47;;;4.18;100.00
5522;BME280;2783;48.730;8.006;2023-01-25T06:32:31;101631.22;;;4.12;100.00
5522;BME280;2783;48.730;8.006;2023-01-25T06:34:57;101625.91;;;4.09;100.00
5522;BME280;2783;48.730;8.006;2023-01-25T06:37:22;101611.66;;;3.98;100.00
5522;BME280;2783;48.730;8.006;2023-01-25T06:39:47;101620.28;;;3.91;100.00
5522;BME280;2783;48.730;8.006;2023-01-25T06:42:12;101619.34;;;3.87;100.00
5522;BME280;2783;48.730;8.006;2023-01-25T06:44:38;101614.00;;;3.83;100.00
5522;BME280;2783;48.730;8.006;2023-01-25T06:47:03;101611.38;;;3.83;100.00
5522;BME280;2783;48.730;8.006;2023-01-25T06:49:28;101617.34;;;3.76;100.00
5522;BME280;2783;48.730;8.006;2023-01-25T06:51:53;101603.25;;;3.72;100.00
5522;BME280;2783;48.730;8.006;2023-01-25T06:54:19;101608.47;;;3.71;100.00
5522;BME280;2783;48.730;8.006;2023-01-25T06:56:44;101604.09;;;3.70;100.00
5522;BME280;2783;48.730;8.006;2023-01-25T06:59:09;101598.72;;;3.64;100.00
5522;BME280;2783;48.730;8.006;2023-01-25T07:01:34;101605.75;;;3.65;100.00
5522;BME280;2783;48.730;8.006;2023-01-25T07:04:01;101600.44;;;3.63;100.00
5522;BME280;2783;48.730;8.006;2023-01-25T07:06:30;101596.94;;;3.64;100.00
5522;BME280;2783;48.730;8.006;2023-01-25T07:09:00;101604.03;;;3.67;100.00
5522;BME280;2783;48.730;8.006;2023-01-25T07:11:25;101594.44;;;3.69;100.00
5522;BME280;2783;48.730;8.006;2023-01-25T07:13:51;101597.97;;;3.72;100.00
5522;BME280;2783;48.730;8.006;2023-01-25T07:16:17;101602.31;;;3.69;100.00
5522;BME280;2783;48.730;8.006;2023-01-25T07:18:43;101597.06;;;3.69;100.00
5522;BME280;2783;48.730;8.006;2023-01-25T07:21:12;101598.81;;;3.70;100.00
5522;BME280;2783;48.730;8.006;2023-01-25T07:23:37;101597.13;;;3.72;100.00
5522;BME280;2783;48.730;8.006;2023-01-25T07:26:03;101595.34;;;3.72;100.00
5522;BME280;2783;48.730;8.006;2023-01-25T07:28:29;101595.44;;;3.75;100.00
5522;BME280;2783;48.730;8.006;2023-01-25T07:30:55;101595.47;;;3.77;100.00
5522;BME280;2783;48.730;8.006;2023-01-25T07:33:21;101597.41;;;3.85;100.00
5522;BME280;2783;48.730;8.006;2023-01-25T07:35:46;101598.31;;;3.89;100.00
5522;BME280;2783;48.730;8.006;2023-01-25T07:38:15;101595.69;;;3.89;100.00
5522;BME280;2783;48.730;8.006;2023-01-25T07:40:40;101601.16;;;3.98;100.00
5522;BME280;2783;48.730;8.006;2023-01-25T07:43:05;101596.13;;;4.10;100.00
5522;BME280;2783;48.730;8.006;2023-01-25T07:45:31;101603.16;;;4.11;100.00
5522;BME280;2783;48.730;8.006;2023-01-25T07:47:56;101604.13;;;4.16;100.00
5522;BME280;2783;48.730;8.006;2023-01-25T07:50:22;101596.28;;;4.19;100.00
5522;BME280;2783;48.730;8.006;2023-01-25T07:52:48;101610.41;;;4.24;100.00
5522;BME280;2783;48.730;8.006;2023-01-25T07:55:13;101614.00;;;4.29;100.00
5522;BME280;2783;48.730;8.006;2023-01-25T07:57:39;101610.63;;;4.36;100.00
5522;BME280;2783;48.730;8.006;2023-01-25T08:00:05;101608.97;;;4.41;100.00
5522;BME280;2783;48.730;8.006;2023-01-25T08:02:31;101610.78;;;4.45;100.00
5522;BME280;2783;48.730;8.006;2023-01-25T08:04:57;101619.81;;;4.59;100.00
5522;BME280;2783;48.730;8.006;2023-01-25T08:07:22;101625.19;;;4.65;100.00
5522;BME280;2783;48.730;8.006;2023-01-25T08:09:47;101620.13;;;4.77;100.00
5522;BME280;2783;48.730;8.006;2023-01-25T08:12:13;101619.41;;;4.87;100.00
5522;BME280;2783;48.730;8.006;2023-01-25T08:14:38;101625.66;;;4.92;100.00
5522;BME280;2783;48.730;8.006;2023-01-25T08:17:03;101623.16;;;5.03;100.00
5522;BME280;2783;48.730;8.006;2023-01-25T08:19:29;101614.44;;;5.05;100.00
5522;BME280;2783;48.730;8.006;2023-01-25T08:21:54;101622.34;;;5.05;100.00
5522;BME280;2783;48.730;8.006;2023-01-25T08:24:19;101615.38;;;5.09;100.00
5522;BME280;2783;48.730;8.006;2023-01-25T08:26:44;101619.94;;;5.20;100.00
5522;BME280;2783;48.730;8.006;2023-01-25T08:29:10;101611.09;;;5.17;100.00
5522;BME280;2783;48.730;8.006;2023-01-25T08:31:36;101616.53;;;5.30;100.00
5522;BME280;2783;48.730;8.006;2023-01-25T08:34:03;101621.81;;;5.30;100.00
5522;BME280;2783;48.730;8.006;2023-01-25T08:36:29;101618.41;;;5.39;100.00
5522;BME280;2783;48.730;8.006;2023-01-25T08:38:55;101614.03;;;5.39;100.00
5522;BME280;2783;48.730;8.006;2023-01-25T08:41:20;101610.59;;;5.44;100.00
5522;BME280;2783;48.730;8.006;2023-01-25T08:43:46;101599.97;;;5.40;100.00
5522;BME280;2783;48.730;8.006;2023-01-25T08:46:12;101604.53;;;5.52;100.00
5522;BME280;2783;48.730;8.006;2023-01-25T08:48:37;101598.31;;;5.49;100.00
5522;BME280;2783;48.730;8.006;2023-01-25T08:51:02;101591.31;;;5.51;99.78
5522;BME280;2783;48.730;8.006;2023-01-25T08:53:31;101590.47;;;5.53;99.00
5522;BME280;2783;48.730;8.006;2023-01-25T08:56:01;101592.38;;;5.63;99.26
5522;BME280;2783;48.730;8.006;2023-01-25T08:58:26;101588.84;;;5.64;98.25
5522;BME280;2783;48.730;8.006;2023-01-25T09:00:52;101581.81;;;5.63;98.21
5522;BME280;2783;48.730;8.006;2023-01-25T09:03:17;101580.97;;;5.67;98.15
5522;BME280;2783;48.730;8.006;2023-01-25T09:05:42;101581.00;;;5.72;97.39
5522;BME280;2783;48.730;8.006;2023-01-25T09:08:08;101582.81;;;5.74;96.77
5522;BME280;2783;48.730;8.006;2023-01-25T09:10:34;101576.81;;;5.84;97.51
5522;BME280;2783;48.730;8.006;2023-01-25T09:12:59;101576.81;;;5.86;97.44
5522;BME280;2783;48.730;8.006;2023-01-25T09:15:25;101577.59;;;5.79;95.99
5522;BME280;2783;48.730;8.006;2023-01-25T09:17:53;101577.72;;;5.85;96.26
5522;BME280;2783;48.730;8.006;2023-01-25T09:20:19;101581.19;;;5.84;95.23
5522;BME280;2783;48.730;8.006;2023-01-25T09:22:44;101566.34;;;5.93;95.86
5522;BME280;2783;48.730;8.006;2023-01-25T09:25:09;101576.91;;;5.95;94.25
5522;BME280;2783;48.730;8.006;2023-01-25T09:27:35;101579.69;;;6.07;94.03
5522;BME280;2783;48.730;8.006;2023-01-25T09:30:01;101576.16;;;6.05;93.61
5522;BME280;2783;48.730;8.006;2023-01-25T09:32:26;101576.25;;;6.14;93.31
5522;BME280;2783;48.730;8.006;2023-01-25T09:34:51;101569.13;;;6.07;92.27
5522;BME280;2783;48.730;8.006;2023-01-25T09:37:16;101572.69;;;6.09;93.02
5522;BME280;2783;48.730;8.006;2023-01-25T09:39:42;101576.06;;;5.96;94.01
5522;BME280;2783;48.730;8.006;2023-01-25T09:42:10;101574.38;;;6.04;93.92
5522;BME280;2783;48.730;8.006;2023-01-25T09:52:39;101572.09;;;6.40;91.12
5522;BME280;2783;48.730;8.006;2023-01-25T09:55:12;101567.84;;;6.55;91.13
5522;BME280;2783;48.730;8.006;2023-01-25T09:57:38;101574.25;;;6.86;91.37
5522;BME280;2783;48.730;8.006;2023-01-25T10:00:18;101571.72;;;7.06;90.63
5522;BME280;2783;48.730;8.006;2023-01-25T10:03:00;101560.22;;;6.96;88.68
5522;BME280;2783;48.730;8.006;2023-01-25T10:05:29;101561.13;;;7.00;88.73
5522;BME280;2783;48.730;8.006;2023-01-25T10:08:11;101566.47;;;7.10;87.37
5522;BME280;2783;48.730;8.006;2023-01-25T10:10:42;101559.53;;;7.30;87.12
5522;BME280;2783;48.730;8.006;2023-01-25T10:13:11;101552.69;;;7.83;85.70
5522;BME280;2783;48.730;8.006;2023-01-25T10:15:46;101558.13;;;8.35;83.84
5522;BME280;2783;48.730;8.006;2023-01-25T10:18:26;101552.72;;;8.01;79.37
5522;BME280;2783;48.730;8.006;2023-01-25T10:20:56;101558.84;;;7.75;80.82
5522;BME280;2783;48.730;8.006;2023-01-25T10:25:57;101560.56;;;7.59;83.01
5522;BME280;2783;48.730;8.006;2023-01-25T10:30:59;101556.06;;;7.45;82.38
5522;BME280;2783;48.730;8.006;2023-01-25T10:33:26;101555.13;;;7.29;82.68
5522;BME280;2783;48.730;8.006;2023-01-25T10:35:52;101559.44;;;7.17;84.10
5522;BME280;2783;48.730;8.006;2023-01-25T10:38:29;101554.94;;;6.99;84.34
5522;BME280;2783;48.730;8.006;2023-01-25T10:41:42;101542.63;;;7.04;85.41
5522;BME280;2783;48.730;8.006;2023-01-25T10:43:42;101540.97;;;7.23;86.27
5522;BME280;2783;48.730;8.006;2023-01-25T10:46:25;101543.56;;;7.18;85.11
5522;BME280;2783;48.730;8.006;2023-01-25T10:48:51;101546.09;;;6.99;85.41
5522;BME280;2783;48.730;8.006;2023-01-25T10:51:27;101539.97;;;7.01;85.49
5522;BME280;2783;48.730;8.006;2023-01-25T10:53:57;101543.50;;;7.02;85.29
5522;BME280;2783;48.730;8.006;2023-01-25T10:56:23;101532.06;;;7.07;85.44
5522;BME280;2783;48.730;8.006;2023-01-25T10:58:50;101535.56;;;7.03;85.80
5522;BME280;2783;48.730;8.006;2023-01-25T11:01:28;101529.31;;;6.92;86.50
5522;BME280;2783;48.730;8.006;2023-01-25T11:03:53;101522.28;;;6.94;87.09
5522;BME280;2783;48.730;8.006;2023-01-25T11:06:35;101526.63;;;6.83;86.48
5522;BME280;2783;48.730;8.006;2023-01-25T11:09:05;101515.16;;;6.81;86.79
5522;BME280;2783;48.730;8.006;2023-01-25T11:11:55;101514.19;;;6.70;87.58
5522;BME280;2783;48.730;8.006;2023-01-25T11:14:22;101512.47;;;6.72;88.00
5522;BME280;2783;48.730;8.006;2023-01-25T11:16:48;101503.66;;;6.76;87.82
5522;BME280;2783;48.730;8.006;2023-01-25T11:21:58;101498.34;;;6.70;88.07
5522;BME280;2783;48.730;8.006;2023-01-25T11:24:42;101495.69;;;6.67;88.49
5522;BME280;2783;48.730;8.006;2023-01-25T11:27:20;101494.78;;;6.66;88.40
5522;BME280;2783;48.730;8.006;2023-01-25T11:32:30;101484.00;;;6.38;89.54
5522;BME280;2783;48.730;8.006;2023-01-25T11:34:55;101481.31;;;6.35;89.56
5522;BME280;2783;48.730;8.006;2023-01-25T11:42:26;101468.22;;;6.48;89.66
5522;BME280;2783;48.730;8.006;2023-01-25T11:57:35;101446.00;;;6.21;88.81
5522;BME280;2783;48.730;8.006;2023-01-25T12:01:06;101438.06;;;6.21;90.29
5522;BME280;2783;48.730;8.006;2023-01-25T12:08:15;101426.66;;;6.28;89.90
5522;BME280;2783;48.730;8.006;2023-01-25T12:16:13;101405.47;;;6.19;89.62
5522;BME280;2783;48.730;8.006;2023-01-25T12:18:53;101397.59;;;6.26;88.84
5522;BME280;2783;48.730;8.006;2023-01-25T12:24:17;101387.94;;;6.34;88.24
5522;BME280;2783;48.730;8.006;2023-01-25T12:26:56;101379.22;;;6.46;88.72
5522;BME280;2783;48.730;8.006;2023-01-25T12:31:57;101361.66;;;6.57;86.98
5522;BME280;2783;48.730;8.006;2023-01-25T12:34:32;101359.88;;;6.56;86.65
5522;BME280;2783;48.730;8.006;2023-01-25T12:37:02;101355.47;;;6.53;86.00
5522;BME280;2783;48.730;8.006;2023-01-25T12:39:31;101350.22;;;6.59;86.83
5522;BME280;2783;48.730;8.006;2023-01-25T12:42:03;101350.22;;;6.64;86.62
5522;BME280;2783;48.730;8.006;2023-01-25T12:44:33;101347.56;;;6.58;85.52
5522;BME280;2783;48.730;8.006;2023-01-25T12:47:13;101352.03;;;6.71;85.41
5522;BME280;2783;48.730;8.006;2023-01-25T12:52:29;101337.97;;;6.80;85.40
5522;BME280;2783;48.730;8.006;2023-01-25T12:54:56;101337.97;;;6.77;85.15
5522;BME280;2783;48.730;8.006;2023-01-25T12:57:25;101334.44;;;6.79;86.33
5522;BME280;2783;48.730;8.006;2023-01-25T13:04:55;101326.47;;;6.67;85.05
5522;BME280;2783;48.730;8.006;2023-01-25T13:12:16;101322.94;;;6.71;85.75
5522;BME280;2783;48.730;8.006;2023-01-25T13:14:42;101321.97;;;6.52;85.38
5522;BME280;2783;48.730;8.006;2023-01-25T13:17:20;101318.47;;;6.50;85.52
5522;BME280;2783;48.730;8.006;2023-01-25T13:19:46;101314.84;;;6.32;85.82
5522;BME280;2783;48.730;8.006;2023-01-25T13:22:12;101302.47;;;6.22;86.69
5522;BME280;2783;48.730;8.006;2023-01-25T13:27:39;101301.66;;;6.35;86.77
5522;BME280;2783;48.730;8.006;2023-01-25T13:35:03;101292.81;;;6.27;87.51
5522;BME280;2783;48.730;8.006;2023-01-25T13:37:32;101291.97;;;6.31;87.86
5522;BME280;2783;48.730;8.006;2023-01-25T13:40:02;101285.78;;;6.32;87.00
5522;BME280;2783;48.730;8.006;2023-01-25T13:42:29;101287.59;;;6.39;86.98
5522;BME280;2783;48.730;8.006;2023-01-25T13:44:56;101275.22;;;6.29;86.82
5522;BME280;2783;48.730;8.006;2023-01-25T13:47:23;101268.13;;;6.25;86.81
5522;BME280;2783;48.730;8.006;2023-01-25T13:52:24;101274.31;;;6.33;87.62
5522;BME280;2783;48.730;8.006;2023-01-25T13:54:52;101270.81;;;6.31;86.46
5522;BME280;2783;48.730;8.006;2023-01-25T13:57:28;101268.19;;;6.31;87.15
5522;BME280;2783;48.730;8.006;2023-01-25T14:00:26;101267.31;;;6.36;87.70
5522;BME280;2783;48.730;8.006;2023-01-25T14:02:45;101266.41;;;6.33;87.21
5522;BME280;2783;48.730;8.006;2023-01-25T14:05:20;101269.94;;;6.32;86.91
5522;BME280;2783;48.730;8.006;2023-01-25T14:07:46;101261.09;;;6.24;86.30
5522;BME280;2783;48.730;8.006;2023-01-25T14:10:13;101264.56;;;6.20;87.37
5522;BME280;2783;48.730;8.006;2023-01-25T14:12:40;101257.47;;;6.10;87.30
5522;BME280;2783;48.730;8.006;2023-01-25T14:15:25;101269.78;;;6.05;87.29
5522;BME280;2783;48.730;8.006;2023-01-25T14:20:49;101257.47;;;6.07;88.29
5522;BME280;2783;48.730;8.006;2023-01-25T14:23:32;101250.47;;;6.12;88.51
5522;BME280;2783;48.730;8.006;2023-01-25T14:25:58;101254.00;;;6.17;88.19
5522;BME280;2783;48.730;8.006;2023-01-25T14:28:24;101248.69;;;6.11;87.44
5522;BME280;2783;48.730;8.006;2023-01-25T14:30:53;101238.06;;;5.96;87.62
5522;BME280;2783;48.730;8.006;2023-01-25T14:33:32;101246.88;;;6.01;87.71
5522;BME280;2783;48.730;8.006;2023-01-25T14:36:07;101249.53;;;5.99;87.97
5522;BME280;2783;48.730;8.006;2023-01-25T14:41:33;101250.38;;;5.95;88.27
5522;BME280;2783;48.730;8.006;2023-01-25T14:43:50;101228.31;;;5.83;88.49
5522;BME280;2783;48.730;8.006;2023-01-25T14:46:38;101236.19;;;5.80;89.25
5522;BME280;2783;48.730;8.006;2023-01-25T14:51:33;101239.63;;;5.70;88.21
5522;BME280;2783;48.730;8.006;2023-01-25T14:54:04;101233.44;;;5.65;88.22
5522;BME280;2783;48.730;8.006;2023-01-25T14:56:41;101234.38;;;5.73;88.57
5522;BME280;2783;48.730;8.006;2023-01-25T14:59:29;101224.63;;;5.66;89.08
5522;BME280;2783;48.730;8.006;2023-01-25T15:01:52;101221.09;;;5.64;89.04